Time;durP1;ratioP1;P1;durP2;ratioP2;P2;SDS_P1;SDS_P2;PMS_P1;PMS_P2;Temp;Humidity;BMP_temperature;BMP_pressure;BME280_temperature;BME280_humidity;BME280_pressure;Samples;Min_cycle;Max_cycle;Signal;HPM_P1;HPM_P2
2022/07/11 00:01:40;;;;;;;4.93;1.20;;;12.10;99.90;;;;;;5033678;28;20780;-43
2022/07/11 00:04:07;;;;;;;5.17;1.90;;;12.00;99.90;;;;;;5041740;28;20256;-45
2022/07/11 00:06:34;;;;;;;3.17;1.20;;;12.00;99.90;;;;;;5040824;28;20286;-44
2022/07/11 00:09:01;;;;;;;4.07;1.27;;;11.90;99.90;;;;;;5035212;28;20238;-46
2022/07/11 00:11:28;;;;;;;5.03;1.47;;;11.90;99.90;;;;;;5041389;28;20774;-44
2022/07/11 00:13:57;;;;;;;1.93;1.13;;;11.70;99.90;;;;;;5042912;28;20215;-45
2022/07/11 00:16:23;;;;;;;5.23;2.00;;;11.90;99.90;;;;;;5042827;28;20214;-45
2022/07/11 00:18:51;;;;;;;7.17;1.67;;;11.80;99.90;;;;;;5030462;28;20196;-43
2022/07/11 00:21:19;;;;;;;4.80;1.57;;;11.80;99.90;;;;;;5039307;28;20242;-47
2022/07/11 00:23:45;;;;;;;4.77;1.70;;;11.80;99.90;;;;;;5044035;28;20219;-44
2022/07/11 00:26:12;;;;;;;3.60;1.70;;;11.80;99.90;;;;;;5030800;28;20206;-43
2022/07/11 00:28:39;;;;;;;6.20;1.70;;;11.80;99.90;;;;;;5037900;28;20579;-44
2022/07/11 00:31:08;;;;;;;5.27;1.60;;;11.80;99.90;;;;;;5032417;28;20199;-42
2022/07/11 00:33:35;;;;;;;3.70;1.47;;;11.90;99.90;;;;;;5028271;28;20191;-45
2022/07/11 00:36:02;;;;;;;3.97;1.57;;;11.90;99.90;;;;;;5034012;28;20216;-43
2022/07/11 00:38:28;;;;;;;3.53;2.00;;;11.90;99.90;;;;;;5035884;28;20249;-43
2022/07/11 00:40:55;;;;;;;2.27;1.20;;;11.90;99.90;;;;;;5037806;28;20213;-43
2022/07/11 00:43:30;;;;;;;4.13;1.83;;;11.90;99.90;;;;;;5041749;28;20199;-43
2022/07/11 00:45:57;;;;;;;2.50;1.33;;;11.90;99.90;;;;;;5042157;28;20202;-42
2022/07/11 00:48:25;;;;;;;5.57;1.57;;;11.80;99.90;;;;;;5041939;28;20219;-43
2022/07/11 00:50:52;;;;;;;2.53;1.20;;;11.80;99.90;;;;;;5027233;28;20200;-45
2022/07/11 00:53:20;;;;;;;2.43;1.40;;;11.80;99.90;;;;;;5035032;28;20229;-42
2022/07/11 00:55:47;;;;;;;1.97;1.40;;;11.80;99.90;;;;;;5043026;28;20215;-45
2022/07/11 00:58:14;;;;;;;5.53;1.27;;;11.70;99.90;;;;;;5031376;28;20199;-43
2022/07/11 01:00:42;;;;;;;2.80;1.20;;;11.70;99.90;;;;;;5035379;28;20291;-42
2022/07/11 01:03:09;;;;;;;3.13;1.30;;;11.60;99.90;;;;;;5037512;28;20253;-44
2022/07/11 01:05:37;;;;;;;4.77;1.30;;;11.70;99.90;;;;;;5034939;28;20223;-42
2022/07/11 01:08:04;;;;;;;2.70;1.23;;;11.70;99.90;;;;;;5038014;28;20219;-42
2022/07/11 01:10:31;;;;;;;4.00;1.37;;;11.70;99.90;;;;;;5044727;28;20207;-43
2022/07/11 01:12:59;;;;;;;4.70;1.20;;;11.70;99.90;;;;;;5037734;28;20191;-44
2022/07/11 01:15:26;;;;;;;3.00;1.10;;;11.70;99.90;;;;;;5043371;28;20224;-42
2022/07/11 01:17:53;;;;;;;3.07;1.33;;;11.60;99.90;;;;;;5040997;28;20195;-43
2022/07/11 01:20:22;;;;;;;2.73;1.50;;;11.50;99.90;;;;;;5035150;28;20200;-42
2022/07/11 01:22:53;;;;;;;1.93;1.50;;;11.50;99.90;;;;;;5024606;28;20599;-46
2022/07/11 01:25:30;;;;;;;2.50;1.33;;;11.50;99.90;;;;;;5040320;28;20211;-45
2022/07/11 01:27:58;;;;;;;2.93;1.27;;;11.40;99.90;;;;;;5039804;28;20613;-43
2022/07/11 01:30:26;;;;;;;3.83;1.27;;;11.40;99.90;;;;;;5031108;28;20282;-42
2022/07/11 01:32:53;;;;;;;3.47;1.37;;;11.50;99.90;;;;;;5037560;28;20231;-43
2022/07/11 01:35:21;;;;;;;3.50;1.10;;;11.50;99.90;;;;;;5036917;28;20227;-43
2022/07/11 01:37:49;;;;;;;2.40;1.23;;;11.50;99.90;;;;;;5043023;28;20203;-45
2022/07/11 01:40:16;;;;;;;4.87;1.50;;;11.50;99.90;;;;;;5028231;28;20195;-42
2022/07/11 01:42:45;;;;;;;2.80;1.17;;;11.50;99.90;;;;;;5034465;28;20270;-44
2022/07/11 01:45:13;;;;;;;2.23;1.00;;;11.50;99.90;;;;;;5034388;28;20237;-42
2022/07/11 01:47:41;;;;;;;1.30;1.20;;;11.50;99.90;;;;;;5041443;28;20202;-44
2022/07/11 01:50:09;;;;;;;3.17;1.20;;;11.50;99.90;;;;;;5036405;28;20223;-42
2022/07/11 01:52:35;;;;;;;2.53;1.00;;;11.50;99.90;;;;;;5028099;28;20261;-43
2022/07/11 01:55:02;;;;;;;2.67;1.03;;;11.50;99.90;;;;;;5036141;28;20222;-43
2022/07/11 01:57:30;;;;;;;3.53;1.13;;;11.50;99.90;;;;;;5027339;28;20205;-42
2022/07/11 01:59:58;;;;;;;1.80;1.30;;;11.40;99.90;;;;;;5032353;28;20822;-43
2022/07/11 02:02:25;;;;;;;4.37;1.40;;;11.40;99.90;;;;;;5042543;28;20203;-42
2022/07/11 02:04:52;;;;;;;5.53;1.30;;;11.40;99.90;;;;;;5040946;28;20211;-44
2022/07/11 02:08:11;;;;;;;2.47;1.23;;;11.40;99.90;;;;;;5040943;28;20195;-42
2022/07/11 02:10:07;;;;;;;2.10;1.10;;;11.40;99.90;;;;;;5024023;28;20219;-46
2022/07/11 02:12:34;;;;;;;3.87;1.20;;;11.40;99.90;;;;;;5031073;28;20687;-47
2022/07/11 02:15:02;;;;;;;2.27;1.13;;;11.30;99.90;;;;;;5039928;28;20242;-44
2022/07/11 02:17:29;;;;;;;6.50;1.63;;;11.40;99.90;;;;;;5029345;28;20215;-42
2022/07/11 02:19:56;;;;;;;2.50;1.37;;;11.40;99.90;;;;;;5040858;28;20660;-42
2022/07/11 02:22:24;;;;;;;1.50;1.30;;;11.40;99.90;;;;;;5035772;28;20207;-42
2022/07/11 02:24:51;;;;;;;3.77;1.60;;;11.50;99.90;;;;;;5041797;28;20215;-42
2022/07/11 02:27:17;;;;;;;1.50;1.10;;;11.50;99.90;;;;;;5038744;28;20202;-44
2022/07/11 02:29:44;;;;;;;2.47;1.00;;;11.40;99.90;;;;;;5043312;28;20222;-45
2022/07/11 02:32:13;;;;;;;2.43;0.97;;;11.40;99.90;;;;;;5035868;28;20203;-43
2022/07/11 02:34:40;;;;;;;2.50;1.30;;;11.40;99.90;;;;;;5043552;28;20257;-42
2022/07/11 02:37:07;;;;;;;3.43;1.47;;;11.30;99.90;;;;;;5034554;28;20218;-42
2022/07/11 02:39:34;;;;;;;2.97;1.20;;;11.30;99.90;;;;;;5031581;28;20196;-46
2022/07/11 02:42:01;;;;;;;1.80;0.93;;;11.20;99.90;;;;;;5036790;28;20231;-43
2022/07/11 02:44:28;;;;;;;4.20;0.90;;;11.20;99.90;;;;;;5043245;28;20211;-45
2022/07/11 02:46:55;;;;;;;2.83;1.70;;;11.30;99.90;;;;;;5038059;28;20207;-42
2022/07/11 02:49:23;;;;;;;2.90;1.23;;;11.20;99.90;;;;;;5040381;28;20215;-43
2022/07/11 02:51:50;;;;;;;2.60;1.20;;;11.20;99.90;;;;;;5041645;28;20660;-43
2022/07/11 02:54:17;;;;;;;1.73;1.00;;;11.20;99.90;;;;;;5034181;28;20231;-42
2022/07/11 02:56:44;;;;;;;4.07;1.13;;;11.20;99.90;;;;;;5036016;28;20287;-42
2022/07/11 02:59:11;;;;;;;2.10;1.07;;;11.10;99.90;;;;;;5019824;28;20188;-42
2022/07/11 03:01:37;;;;;;;2.73;0.97;;;11.10;99.90;;;;;;5034443;28;20282;-43
2022/07/11 03:04:04;;;;;;;1.30;0.93;;;11.00;99.90;;;;;;5035684;28;20871;-43
2022/07/11 03:06:33;;;;;;;1.53;0.90;;;11.00;99.90;;;;;;5043453;28;20672;-42
2022/07/11 03:09:00;;;;;;;2.03;1.00;;;11.00;99.90;;;;;;5041263;28;20219;-43
2022/07/11 03:11:27;;;;;;;1.63;1.10;;;10.90;99.90;;;;;;5047090;28;20195;-43
2022/07/11 03:13:53;;;;;;;4.20;1.20;;;10.90;99.90;;;;;;5026815;28;20255;-44
2022/07/11 03:16:20;;;;;;;3.20;1.27;;;10.90;99.90;;;;;;5025748;28;20184;-42
2022/07/11 03:18:47;;;;;;;2.67;1.20;;;10.90;99.90;;;;;;5036941;28;20196;-45
2022/07/11 03:21:14;;;;;;;1.73;1.20;;;10.90;99.90;;;;;;5028641;28;20281;-45
2022/07/11 03:23:42;;;;;;;1.87;0.80;;;10.80;99.90;;;;;;5044390;28;20916;-42
2022/07/11 03:26:09;;;;;;;3.43;1.17;;;10.80;99.90;;;;;;5034171;28;20279;-43
2022/07/11 03:28:36;;;;;;;2.20;1.20;;;10.80;99.90;;;;;;5028816;28;20207;-43
2022/07/11 03:31:03;;;;;;;2.93;1.43;;;10.80;99.90;;;;;;5034711;28;20260;-44
2022/07/11 03:33:30;;;;;;;2.00;1.07;;;10.80;99.90;;;;;;5046492;28;20203;-42
2022/07/11 03:35:57;;;;;;;5.43;1.37;;;10.80;99.90;;;;;;5038985;28;20211;-43
2022/07/11 03:38:24;;;;;;;1.33;1.23;;;10.70;99.90;;;;;;5043341;28;20229;-43
2022/07/11 03:40:53;;;;;;;4.07;1.33;;;10.70;99.90;;;;;;5045144;28;20188;-43
2022/07/11 03:43:20;;;;;;;1.20;1.10;;;10.70;99.90;;;;;;5044878;28;20207;-44
2022/07/11 03:45:47;;;;;;;3.43;1.70;;;10.80;99.90;;;;;;5043299;28;20265;-43
2022/07/11 03:48:14;;;;;;;5.00;1.50;;;10.80;99.90;;;;;;5025345;28;20200;-42
2022/07/11 03:50:41;;;;;;;2.63;1.67;;;10.70;99.90;;;;;;5026504;28;20220;-43
2022/07/11 03:53:08;;;;;;;4.57;1.70;;;10.70;99.90;;;;;;5034759;28;20296;-42
2022/07/11 03:55:37;;;;;;;3.73;1.93;;;10.70;99.90;;;;;;5042848;28;20219;-42
2022/07/11 03:58:05;;;;;;;2.50;1.57;;;10.70;99.90;;;;;;5042130;28;20864;-45
2022/07/11 04:00:33;;;;;;;2.47;1.40;;;10.70;99.90;;;;;;5039384;28;20200;-48
2022/07/11 04:03:00;;;;;;;5.30;1.60;;;10.70;99.90;;;;;;5041440;28;20211;-45
2022/07/11 04:05:28;;;;;;;3.27;1.43;;;10.70;99.90;;;;;;5045794;28;20218;-45
2022/07/11 04:07:55;;;;;;;3.30;1.60;;;10.70;99.90;;;;;;5039098;28;20222;-44
2022/07/11 04:10:22;;;;;;;8.63;1.63;;;10.80;99.90;;;;;;5032775;28;20985;-42
2022/07/11 04:12:49;;;;;;;1.63;1.10;;;10.80;99.90;;;;;;5033674;28;20212;-44
2022/07/11 04:15:17;;;;;;;5.20;1.70;;;10.80;99.90;;;;;;5025935;28;20937;-45
2022/07/11 04:17:45;;;;;;;5.73;1.80;;;10.70;99.90;;;;;;5025850;28;20228;-45
2022/07/11 04:20:12;;;;;;;5.10;1.80;;;10.70;99.90;;;;;;5023143;28;20901;-42
2022/07/11 04:22:38;;;;;;;3.80;1.90;;;10.80;99.90;;;;;;5029428;28;20672;-43
2022/07/11 04:25:06;;;;;;;1.70;1.30;;;10.80;99.90;;;;;;5036385;28;20370;-42
2022/07/11 04:27:32;;;;;;;5.87;2.00;;;10.90;99.90;;;;;;5025933;28;20571;-42
2022/07/11 04:29:59;;;;;;;1.93;0.93;;;11.00;99.90;;;;;;5040687;28;20280;-42
2022/07/11 04:32:28;;;;;;;2.53;1.60;;;11.10;99.90;;;;;;5035164;28;20389;-43
2022/07/11 04:34:54;;;;;;;3.33;1.70;;;11.20;99.90;;;;;;5038212;28;20281;-43
2022/07/11 04:37:21;;;;;;;3.67;1.90;;;11.30;99.90;;;;;;5043061;28;20210;-43
2022/07/11 04:39:48;;;;;;;4.07;1.97;;;11.30;99.90;;;;;;5036397;28;20222;-44
2022/07/11 04:42:15;;;;;;;4.20;1.50;;;11.40;99.90;;;;;;5035557;28;20337;-45
2022/07/11 04:44:42;;;;;;;4.07;1.77;;;11.40;99.90;;;;;;5028976;28;20238;-45
2022/07/11 04:47:09;;;;;;;3.30;1.70;;;11.50;99.90;;;;;;5023862;28;20199;-42
2022/07/11 04:49:37;;;;;;;3.63;1.30;;;11.60;99.90;;;;;;5043373;28;20226;-44
2022/07/11 04:52:05;;;;;;;1.97;1.50;;;11.60;99.90;;;;;;5041435;28;20187;-43
2022/07/11 04:54:32;;;;;;;5.57;1.83;;;11.70;99.90;;;;;;5034108;28;20227;-46
2022/07/11 04:57:00;;;;;;;5.93;1.83;;;11.70;99.90;;;;;;5030650;28;20200;-44
2022/07/11 04:59:27;;;;;;;4.77;1.77;;;;;;;;;;5040396;28;20652;-43
2022/07/11 05:01:54;;;;;;;3.47;1.90;;;11.80;99.90;;;;;;5032058;28;20672;-44
2022/07/11 05:04:21;;;;;;;5.67;2.03;;;11.90;99.90;;;;;;5041365;28;20714;-42
2022/07/11 05:06:49;;;;;;;5.37;1.57;;;11.90;99.90;;;;;;5034375;28;20204;-44
2022/07/11 05:09:16;;;;;;;5.10;1.80;;;12.00;99.90;;;;;;5037925;28;20192;-42
2022/07/11 05:11:45;;;;;;;2.60;1.40;;;;;;;;;;5034616;28;20210;-42
2022/07/11 05:14:12;;;;;;;4.47;1.43;;;12.20;99.90;;;;;;5026484;28;20215;-42
2022/07/11 05:16:40;;;;;;;3.13;1.40;;;;;;;;;;5029334;28;20218;-45
2022/07/11 05:19:07;;;;;;;5.83;1.67;;;12.20;99.90;;;;;;5048825;28;20210;-43
2022/07/11 05:21:35;;;;;;;9.73;1.90;;;;;;;;;;5031050;28;20204;-45
2022/07/11 05:24:03;;;;;;;7.67;1.77;;;12.40;99.90;;;;;;5032070;28;20973;-42
2022/07/11 05:26:30;;;;;;;2.03;1.50;;;12.50;99.90;;;;;;5033766;28;20218;-44
2022/07/11 05:28:57;;;;;;;5.63;2.53;;;12.60;99.90;;;;;;5036223;28;20668;-43
2022/07/11 05:31:24;;;;;;;7.13;1.50;;;12.60;99.90;;;;;;5044238;28;20211;-42
2022/07/11 05:33:51;;;;;;;5.33;1.43;;;12.70;99.90;;;;;;5029859;28;20247;-45
2022/07/11 05:36:17;;;;;;;2.93;1.47;;;12.70;99.90;;;;;;5040210;28;20216;-43
2022/07/11 05:38:44;;;;;;;5.80;1.93;;;12.80;99.90;;;;;;5042314;28;20191;-44
2022/07/11 05:41:12;;;;;;;2.10;1.30;;;12.90;99.90;;;;;;5035335;28;20199;-42
2022/07/11 05:43:39;;;;;;;5.77;1.43;;;13.00;99.90;;;;;;5042593;28;20692;-43
2022/07/11 05:46:06;;;;;;;4.53;1.50;;;13.10;99.90;;;;;;5036925;28;20234;-43
2022/07/11 05:48:33;;;;;;;3.85;1.60;;;13.10;99.90;;;;;;5040258;28;20493;-42
2022/07/11 05:51:00;;;;;;;6.50;1.65;;;13.30;99.90;;;;;;5022950;28;20435;-43
2022/07/11 05:53:26;;;;;;;4.85;1.70;;;13.70;99.90;;;;;;5037221;28;20447;-42
2022/07/11 05:55:53;;;;;;;4.85;1.75;;;14.00;99.90;;;;;;5033061;28;20501;-43
2022/07/11 05:58:21;;;;;;;6.57;1.50;;;14.20;99.90;;;;;;5034770;28;20436;-43
2022/07/11 06:01:10;;;;;;;5.07;1.80;;;14.40;99.90;;;;;;5039190;28;20431;-42
2022/07/11 06:03:37;;;;;;;7.95;1.95;;;14.60;99.90;;;;;;5024851;28;21203;-42
2022/07/11 06:06:06;;;;;;;5.78;1.42;;;14.70;99.90;;;;;;5032945;28;20446;-42
2022/07/11 06:08:42;;;;;;;4.47;1.60;;;14.80;99.90;;;;;;5032213;28;20424;-42
2022/07/11 06:11:10;;;;;;;4.20;1.40;;;15.00;99.90;;;;;;5035858;28;20536;-42
2022/07/11 06:13:40;;;;;;;5.18;1.50;;;15.00;99.90;;;;;;5038244;28;20443;-44
2022/07/11 06:16:08;;;;;;;5.20;1.30;;;15.10;99.90;;;;;;5038128;28;20431;-43
2022/07/11 06:18:36;;;;;;;4.05;1.50;;;14.90;99.90;;;;;;5020713;28;20424;-42
2022/07/11 06:21:04;;;;;;;3.23;1.30;;;15.00;99.90;;;;;;5030219;28;20579;-42
2022/07/11 06:23:34;;;;;;;3.07;1.07;;;14.80;99.90;;;;;;5035155;28;20210;-43
2022/07/11 06:26:02;;;;;;;7.00;1.67;;;14.80;99.90;;;;;;5021294;28;20254;-44
2022/07/11 06:28:29;;;;;;;2.40;1.37;;;14.70;99.90;;;;;;5036621;28;20270;-46
2022/07/11 06:30:57;;;;;;;6.90;1.20;;;14.80;99.90;;;;;;5029545;28;20719;-42
2022/07/11 06:33:23;;;;;;;6.40;1.83;;;14.80;99.90;;;;;;5035924;28;20203;-42
2022/07/11 06:35:50;;;;;;;5.97;1.97;;;14.80;99.90;;;;;;5036226;28;20231;-44
2022/07/11 06:38:17;;;;;;;4.13;1.30;;;14.90;99.90;;;;;;5033736;28;20202;-46
2022/07/11 06:40:45;;;;;;;3.17;1.00;;;14.90;99.90;;;;;;5036296;28;20206;-43
2022/07/11 06:43:12;;;;;;;4.53;1.57;;;14.90;99.90;;;;;;5030408;28;20206;-44
2022/07/11 06:45:39;;;;;;;5.63;1.10;;;15.00;99.90;;;;;;5042334;28;20222;-42
2022/07/11 06:48:07;;;;;;;1.70;0.70;;;15.00;99.90;;;;;;5033971;28;20207;-44
2022/07/11 06:50:36;;;;;;;3.40;0.97;;;15.10;99.90;;;;;;5043812;28;20219;-43
2022/07/11 06:53:03;;;;;;;3.43;1.23;;;15.20;99.90;;;;;;5038492;28;20222;-43
2022/07/11 06:55:31;;;;;;;6.00;1.27;;;15.20;99.90;;;;;;5036365;28;20704;-42
2022/07/11 06:57:57;;;;;;;5.77;1.40;;;15.20;99.90;;;;;;5029909;28;20223;-45
2022/07/11 07:00:25;;;;;;;2.93;0.90;;;15.30;99.90;;;;;;5040237;28;20199;-45
2022/07/11 07:02:51;;;;;;;1.50;0.90;;;15.30;99.90;;;;;;5033948;28;20587;-43
2022/07/11 07:05:19;;;;;;;1.43;0.60;;;15.40;99.90;;;;;;5042327;28;20294;-44
2022/07/11 07:07:46;;;;;;;2.27;0.97;;;15.50;99.90;;;;;;5034244;28;20262;-43
2022/07/11 07:10:13;;;;;;;2.00;0.80;;;15.40;99.90;;;;;;5043399;28;20215;-44
2022/07/11 07:12:40;;;;;;;4.73;1.23;;;15.50;99.90;;;;;;5043193;28;20599;-45
2022/07/11 07:15:08;;;;;;;3.10;1.00;;;15.50;99.90;;;;;;5028154;28;20219;-46
2022/07/11 07:17:35;;;;;;;1.50;0.70;;;15.60;99.90;;;;;;5038170;28;20200;-43
2022/07/11 07:20:03;;;;;;;3.57;1.07;;;15.70;99.90;;;;;;5038163;28;20664;-42
2022/07/11 07:22:31;;;;;;;2.37;0.87;;;15.80;99.90;;;;;;5037967;28;20701;-46
2022/07/11 07:24:57;;;;;;;3.13;0.90;;;15.90;99.90;;;;;;5025223;28;20696;-43
2022/07/11 07:27:24;;;;;;;4.50;1.10;;;16.00;99.90;;;;;;5042895;28;20278;-42
2022/07/11 07:29:52;;;;;;;3.77;1.10;;;16.00;99.90;;;;;;5036514;28;20568;-44
2022/07/11 07:32:18;;;;;;;6.43;1.00;;;16.00;99.90;;;;;;5038314;28;20204;-44
2022/07/11 07:34:45;;;;;;;1.63;0.80;;;16.00;99.90;;;;;;5033826;28;20813;-43
2022/07/11 07:37:12;;;;;;;3.33;0.80;;;16.00;99.90;;;;;;5026628;28;20203;-42
2022/07/11 07:39:40;;;;;;;4.17;0.70;;;16.00;99.90;;;;;;5034202;28;20199;-43
2022/07/11 07:42:07;;;;;;;3.63;1.10;;;16.10;99.90;;;;;;5032430;28;20915;-43
2022/07/11 07:44:34;;;;;;;2.60;0.60;;;16.20;99.90;;;;;;5032890;28;20752;-42
2022/07/11 07:47:01;;;;;;;2.60;0.70;;;16.30;99.90;;;;;;5028940;28;20192;-43
2022/07/11 07:49:29;;;;;;;1.33;0.73;;;16.50;99.90;;;;;;5034633;28;20202;-43
2022/07/11 07:51:55;;;;;;;0.80;0.53;;;16.50;99.90;;;;;;5036962;28;20214;-43
2022/07/11 07:54:22;;;;;;;3.23;1.10;;;16.50;99.90;;;;;;5033626;28;20223;-46
2022/07/11 07:56:50;;;;;;;2.97;0.60;;;16.50;99.90;;;;;;5036698;28;20562;-42
2022/07/11 07:59:17;;;;;;;4.47;0.90;;;16.60;99.90;;;;;;5027153;28;21652;-45
2022/07/11 08:01:45;;;;;;;2.80;0.77;;;16.60;99.90;;;;;;5042464;28;20544;-43
2022/07/11 08:04:12;;;;;;;2.27;0.70;;;16.70;99.90;;;;;;5026434;28;20222;-42
2022/07/11 08:06:39;;;;;;;1.90;0.83;;;16.80;99.90;;;;;;5031954;28;20281;-45
2022/07/11 08:09:07;;;;;;;1.13;0.67;;;16.90;99.90;;;;;;5028271;28;20672;-43
2022/07/11 08:11:34;;;;;;;2.30;0.83;;;17.00;99.90;;;;;;5031676;28;20218;-46
2022/07/11 08:14:04;;;;;;;3.20;0.97;;;17.10;99.90;;;;;;5035293;28;20265;-42
2022/07/11 08:16:31;;;;;;;2.93;0.93;;;17.10;99.90;;;;;;5038623;28;20212;-44
2022/07/11 08:18:59;;;;;;;2.73;0.90;;;17.10;99.90;;;;;;5037552;28;20204;-43
2022/07/11 08:21:26;;;;;;;5.10;1.50;;;17.10;99.90;;;;;;5038826;28;20176;-43
2022/07/11 08:23:53;;;;;;;2.57;0.63;;;17.10;99.90;;;;;;5038102;28;20224;-44
2022/07/11 08:26:19;;;;;;;4.03;0.90;;;17.00;99.90;;;;;;5033089;28;20934;-43
2022/07/11 08:28:46;;;;;;;0.80;0.60;;;17.00;99.90;;;;;;5040469;28;20207;-42
2022/07/11 08:31:14;;;;;;;2.43;0.80;;;17.20;99.90;;;;;;5033347;28;20692;-42
2022/07/11 08:33:41;;;;;;;1.20;0.80;;;17.40;99.90;;;;;;5044339;28;20217;-42
2022/07/11 08:36:08;;;;;;;1.13;0.80;;;17.50;99.90;;;;;;5038428;28;20222;-45
2022/07/11 08:38:35;;;;;;;2.20;0.60;;;17.60;99.90;;;;;;5037852;28;20196;-44
2022/07/11 08:41:02;;;;;;;3.80;0.70;;;17.50;99.90;;;;;;5030124;28;20196;-43
2022/07/11 08:43:30;;;;;;;1.77;0.43;;;17.60;99.90;;;;;;5034513;28;20315;-43
2022/07/11 08:45:58;;;;;;;4.20;0.70;;;17.70;99.90;;;;;;5031308;28;20718;-43
2022/07/11 08:48:28;;;;;;;1.93;0.60;;;17.90;99.90;;;;;;5029316;28;20210;-42
2022/07/11 08:50:55;;;;;;;2.30;0.80;;;18.00;99.90;;;;;;5029920;28;20216;-43
2022/07/11 08:53:22;;;;;;;3.00;0.90;;;18.10;99.90;;;;;;5034655;28;20187;-48
2022/07/11 08:55:48;;;;;;;1.47;0.67;;;18.10;99.90;;;;;;5038860;28;20780;-45
2022/07/11 08:58:15;;;;;;;2.07;0.77;;;18.20;99.90;;;;;;5032475;28;20665;-43
2022/07/11 09:00:43;;;;;;;2.13;0.53;;;18.30;99.90;;;;;;5030917;28;20204;-43
2022/07/11 09:03:15;;;;;;;3.87;0.80;;;18.20;99.90;;;;;;5040194;28;20223;-44
2022/07/11 09:05:44;;;;;;;1.40;0.70;;;18.00;99.90;;;;;;5034999;28;20916;-47
2022/07/11 09:08:11;;;;;;;3.50;0.70;;;18.00;99.90;;;;;;5027857;28;20204;-42
2022/07/11 09:10:40;;;;;;;1.27;0.73;;;18.00;99.90;;;;;;5037613;28;20208;-43
2022/07/11 09:13:10;;;;;;;1.10;0.60;;;18.00;99.90;;;;;;5027053;28;20286;-43
2022/07/11 09:15:39;;;;;;;1.87;0.80;;;18.20;99.90;;;;;;5021450;28;20229;-43
2022/07/11 09:18:27;;;;;;;2.57;0.63;;;18.40;99.90;;;;;;5033998;28;20230;-43
2022/07/11 09:26:30;;;;;;;1.87;0.70;;;19.00;99.90;;;;;;5031325;28;20865;-42
2022/07/11 09:29:01;;;;;;;1.80;0.50;;;18.80;99.90;;;;;;5038914;28;20231;-43
2022/07/11 09:31:29;;;;;;;1.20;0.70;;;18.80;99.90;;;;;;5026434;28;20226;-43
2022/07/11 09:34:01;;;;;;;1.70;0.70;;;18.70;99.90;;;;;;5036226;28;20219;-43
2022/07/11 09:36:40;;;;;;;3.57;0.83;;;18.80;99.90;;;;;;5033941;28;20286;-44
2022/07/11 09:39:08;;;;;;;1.83;0.73;;;19.00;99.90;;;;;;5027407;28;20258;-46
2022/07/11 09:41:37;;;;;;;1.57;0.83;;;19.10;99.90;;;;;;5031056;28;20195;-43
2022/07/11 09:44:08;;;;;;;0.60;0.53;;;19.00;99.90;;;;;;5028905;28;20219;-49
2022/07/11 09:46:36;;;;;;;0.83;0.70;;;18.90;99.90;;;;;;5028947;28;20223;-42
2022/07/11 09:49:03;;;;;;;3.13;0.67;;;18.90;99.90;;;;;;5029004;28;20206;-46
2022/07/11 09:51:32;;;;;;;2.20;0.60;;;18.90;99.90;;;;;;5029897;28;20383;-42
2022/07/11 09:54:01;;;;;;;0.90;0.57;;;18.90;99.90;;;;;;5034517;28;20255;-44
2022/07/11 09:56:35;;;;;;;1.03;0.70;;;18.90;99.90;;;;;;5034543;28;20277;-42
2022/07/11 09:59:02;;;;;;;2.03;0.73;;;18.90;99.90;;;;;;5027659;28;20184;-44
2022/07/11 10:01:29;;;;;;;1.50;0.60;;;19.00;99.90;;;;;;5036704;28;20200;-42
2022/07/11 10:03:56;;;;;;;0.60;0.60;;;19.10;99.90;;;;;;5029795;28;20222;-45
2022/07/11 10:06:23;;;;;;;1.80;0.80;;;19.20;99.90;;;;;;5036485;28;20218;-42
2022/07/11 10:08:50;;;;;;;1.90;0.50;;;19.20;99.90;;;;;;5033696;28;20196;-44
2022/07/11 10:11:19;;;;;;;1.67;0.57;;;19.30;99.90;;;;;;5036115;28;20215;-42
2022/07/11 10:13:46;;;;;;;1.03;0.60;;;19.50;99.90;;;;;;5034995;28;20212;-46
2022/07/11 10:16:21;;;;;;;1.63;0.60;;;19.60;99.90;;;;;;5028883;28;20206;-45
2022/07/11 10:18:56;;;;;;;2.63;0.60;;;19.60;99.90;;;;;;5026268;28;20224;-43
2022/07/11 10:21:31;;;;;;;1.00;0.27;;;19.50;99.90;;;;;;5038350;28;20187;-46
2022/07/11 10:24:06;;;;;;;2.00;0.57;;;19.30;99.90;;;;;;5033529;28;20254;-46
2022/07/11 10:26:43;;;;;;;2.43;0.43;;;19.20;99.90;;;;;;5037829;28;20197;-43
2022/07/11 10:29:15;;;;;;;5.17;0.50;;;19.40;99.90;;;;;;5038981;28;20733;-42
2022/07/11 10:31:42;;;;;;;1.33;0.50;;;19.70;99.90;;;;;;5035406;28;20222;-45
2022/07/11 10:34:15;;;;;;;0.87;0.30;;;19.90;99.90;;;;;;5024428;28;20234;-45
2022/07/11 10:36:44;;;;;;;122.33;34.80;;;19.80;99.90;;;;;;5039701;28;20211;-45
2022/07/11 10:39:17;;;;;;;0.83;0.50;;;19.60;99.90;;;;;;5027159;28;20219;-42
2022/07/11 10:41:46;;;;;;;0.97;0.43;;;19.50;99.90;;;;;;5029580;28;20199;-43
2022/07/11 10:44:13;;;;;;;1.17;0.40;;;19.50;99.90;;;;;;5030192;28;20211;-45
2022/07/11 10:46:40;;;;;;;0.73;0.33;;;19.60;99.90;;;;;;5024988;28;20208;-43
2022/07/11 10:49:18;;;;;;;1.33;0.60;;;19.70;99.90;;;;;;5026663;28;20200;-45
2022/07/11 10:51:53;;;;;;;0.63;0.30;;;19.90;99.90;;;;;;5035235;28;20269;-42
2022/07/11 10:54:44;;;;;;;2.30;0.40;;;19.90;99.90;;;;;;5026233;28;20288;-43
2022/07/11 10:57:16;;;;;;;1.03;0.30;;;19.90;99.90;;;;;;5023059;28;20195;-42
2022/07/11 11:00:00;;;;;;;1.60;0.50;;;19.70;99.90;;;;;;5040727;28;20210;-42
2022/07/11 11:02:27;;;;;;;1.47;0.53;;;19.70;99.90;;;;;;5032017;28;20207;-43
2022/07/11 11:04:58;;;;;;;1.90;0.30;;;19.70;99.90;;;;;;5030717;28;20223;-45
2022/07/11 11:07:46;;;;;;;1.33;0.60;;;19.90;99.90;;;;;;5035754;28;20526;-42
2022/07/11 11:10:49;;;;;;;2.20;0.90;;;20.00;99.90;;;;;;5023826;28;20212;-42
2022/07/11 11:13:20;;;;;;;2.70;0.60;;;20.10;99.90;;;;;;5032731;28;20221;-44
2022/07/11 11:15:49;;;;;;;0.93;0.53;;;20.20;99.90;;;;;;5037339;28;20930;-41
2022/07/11 11:18:34;;;;;;;1.27;0.33;;;20.20;99.90;;;;;;5030239;28;20360;-41
2022/07/11 11:21:17;;;;;;;0.47;0.40;;;20.20;99.90;;;;;;5028203;28;20668;-43
2022/07/11 11:23:46;;;;;;;1.10;0.30;;;20.00;99.90;;;;;;5038122;28;20566;-42
2022/07/11 11:26:15;;;;;;;0.50;0.47;;;20.00;99.90;;;;;;5031682;28;20203;-42
2022/07/11 11:28:58;;;;;;;0.50;0.50;;;20.10;99.90;;;;;;5043435;28;20233;-42
2022/07/11 11:31:26;;;;;;;3.57;0.73;;;20.30;99.90;;;;;;5037614;28;20826;-42
2022/07/11 11:33:53;;;;;;;1.13;0.50;;;20.50;99.90;;;;;;5028156;28;20215;-44
2022/07/11 11:36:22;;;;;;;3.43;0.70;;;20.80;99.90;;;;;;5027382;28;20222;-42
2022/07/11 11:38:49;;;;;;;1.73;0.63;;;20.90;99.90;;;;;;5031680;28;20657;-44
2022/07/11 11:41:23;;;;;;;2.10;0.80;;;20.80;99.90;;;;;;5025861;28;20207;-43
2022/07/11 11:43:50;;;;;;;1.10;0.70;;;20.70;99.90;;;;;;5044735;28;20196;-42
2022/07/11 11:46:18;;;;;;;1.90;0.80;;;20.80;99.90;;;;;;5031159;28;20230;-42
2022/07/11 11:48:46;;;;;;;0.80;0.80;;;20.80;99.90;;;;;;5028575;28;20199;-42
2022/07/11 11:51:14;;;;;;;0.97;0.90;;;20.80;99.90;;;;;;5024901;28;20286;-46
2022/07/11 11:53:44;;;;;;;1.47;0.70;;;20.80;99.90;;;;;;5043559;28;20550;-43
2022/07/11 11:56:16;;;;;;;1.23;0.83;;;20.90;99.90;;;;;;5021908;28;20254;-42
2022/07/11 11:58:44;;;;;;;0.73;0.73;;;20.90;99.90;;;;;;5029674;28;20222;-43
2022/07/11 12:01:11;;;;;;;0.60;0.60;;;21.00;99.90;;;;;;5038906;28;20230;-42
2022/07/11 12:03:49;;;;;;;0.60;0.40;;;20.90;99.90;;;;;;5044416;28;20187;-43
2022/07/11 12:06:16;;;;;;;0.53;0.37;;;21.00;97.10;;;;;;5033073;28;20217;-43
2022/07/11 12:08:43;;;;;;;1.47;0.50;;;21.20;97.80;;;;;;5036757;28;20656;-45
2022/07/11 12:11:13;;;;;;;1.07;0.83;;;21.30;98.20;;;;;;5041408;28;20263;-42
2022/07/11 12:13:40;;;;;;;1.00;0.70;;;21.40;97.80;;;;;;5028402;28;20307;-43
2022/07/11 12:19:00;;;;;;;1.70;0.80;;;21.20;97.70;;;;;;5033589;28;20831;-45
2022/07/11 12:21:29;;;;;;;1.87;0.87;;;21.30;97.70;;;;;;5033494;28;20612;-44
2022/07/11 12:23:56;;;;;;;2.20;0.70;;;21.30;97.50;;;;;;5026666;28;20231;-42
2022/07/11 12:26:24;;;;;;;0.60;0.60;;;21.40;97.80;;;;;;5035448;28;20226;-43
2022/07/11 12:29:05;;;;;;;1.70;0.67;;;21.60;97.20;;;;;;5032238;28;20199;-45
2022/07/11 12:31:47;;;;;;;0.93;0.83;;;21.60;95.90;;;;;;5038175;28;20234;-44
2022/07/11 12:34:17;;;;;;;1.80;1.10;;;21.70;97.70;;;;;;5031790;28;20215;-44
2022/07/11 12:36:45;;;;;;;1.83;1.10;;;21.90;97.90;;;;;;5030901;28;20572;-42
2022/07/11 12:39:23;;;;;;;1.87;1.33;;;22.20;97.10;;;;;;5036755;28;20208;-42
2022/07/11 12:41:51;;;;;;;1.33;1.23;;;22.20;97.00;;;;;;5030236;28;20196;-44
2022/07/11 12:47:07;;;;;;;1.52;1.00;;;22.00;96.90;;;;;;5032966;28;20892;-42
2022/07/11 12:49:35;;;;;;;1.92;0.90;;;22.10;96.60;;;;;;5035732;28;20719;-42
2022/07/11 12:52:02;;;;;;;1.15;1.05;;;22.10;96.30;;;;;;5031315;28;20231;-42
2022/07/11 12:54:31;;;;;;;1.02;0.80;;;22.10;95.50;;;;;;5042802;28;20230;-42
2022/07/11 12:56:58;;;;;;;1.27;0.88;;;22.30;95.10;;;;;;5038506;28;20231;-42
2022/07/11 12:59:27;;;;;;;0.93;0.60;;;22.50;94.50;;;;;;5040729;28;20207;-47
2022/07/11 13:01:58;;;;;;;0.93;0.90;;;22.90;94.90;;;;;;5027268;28;20252;-42
2022/07/11 13:04:33;;;;;;;0.75;0.75;;;23.20;93.60;;;;;;5037022;28;20656;-42
2022/07/11 13:10:04;;;;;;;0.90;0.85;;;23.40;92.10;;;;;;5032597;28;20248;-45